sensor_id;sensor_type;location;lat;lon;timestamp;P1;durP1;ratioP1;P2;durP2;ratioP2
58412;SDS011;44209;52.952;6.790;2023-08-21T00:02:01;3.85;;;1.85;;
58412;SDS011;44209;52.952;6.790;2023-08-21T00:04:27;6.00;;;2.30;;
58412;SDS011;44209;52.952;6.790;2023-08-21T00:06:53;6.85;;;2.60;;
58412;SDS011;44209;52.952;6.790;2023-08-21T00:09:18;5.50;;;2.45;;
58412;SDS011;44209;52.952;6.790;2023-08-21T00:11:44;4.38;;;2.05;;
58412;SDS011;44209;52.952;6.790;2023-08-21T00:14:10;3.15;;;2.03;;
58412;SDS011;44209;52.952;6.790;2023-08-21T00:16:35;4.15;;;2.10;;
58412;SDS011;44209;52.952;6.790;2023-08-21T00:19:01;4.00;;;2.15;;
58412;SDS011;44209;52.952;6.790;2023-08-21T00:21:27;6.20;;;3.55;;
58412;SDS011;44209;52.952;6.790;2023-08-21T00:23:53;6.28;;;2.10;;
58412;SDS011;44209;52.952;6.790;2023-08-21T00:26:18;3.75;;;2.33;;
58412;SDS011;44209;52.952;6.790;2023-08-21T00:28:44;3.25;;;2.20;;
58412;SDS011;44209;52.952;6.790;2023-08-21T00:31:10;5.22;;;2.13;;
58412;SDS011;44209;52.952;6.790;2023-08-21T00:33:35;7.15;;;2.55;;
58412;SDS011;44209;52.952;6.790;2023-08-21T00:36:02;5.68;;;2.20;;
58412;SDS011;44209;52.952;6.790;2023-08-21T00:38:28;5.88;;;2.00;;
58412;SDS011;44209;52.952;6.790;2023-08-21T00:40:54;7.75;;;2.50;;
58412;SDS011;44209;52.952;6.790;2023-08-21T00:43:19;3.53;;;2.10;;
58412;SDS011;44209;52.952;6.790;2023-08-21T00:45:46;4.15;;;2.38;;
58412;SDS011;44209;52.952;6.790;2023-08-21T00:48:14;5.03;;;1.80;;
58412;SDS011;44209;52.952;6.790;2023-08-21T00:50:40;2.00;;;1.85;;
58412;SDS011;44209;52.952;6.790;2023-08-21T00:53:06;4.95;;;2.10;;
58412;SDS011;44209;52.952;6.790;2023-08-21T00:55:32;7.30;;;2.63;;
58412;SDS011;44209;52.952;6.790;2023-08-21T00:57:59;3.08;;;2.08;;
58412;SDS011;44209;52.952;6.790;2023-08-21T01:00:25;5.38;;;2.30;;
58412;SDS011;44209;52.952;6.790;2023-08-21T01:02:53;3.65;;;1.85;;
58412;SDS011;44209;52.952;6.790;2023-08-21T01:05:21;5.40;;;2.28;;
58412;SDS011;44209;52.952;6.790;2023-08-21T01:08:01;4.10;;;2.28;;
58412;SDS011;44209;52.952;6.790;2023-08-21T01:10:58;5.07;;;2.47;;
58412;SDS011;44209;52.952;6.790;2023-08-21T01:16:14;5.03;;;2.15;;
58412;SDS011;44209;52.952;6.790;2023-08-21T01:18:41;6.43;;;2.58;;
58412;SDS011;44209;52.952;6.790;2023-08-21T01:21:10;7.35;;;2.40;;
58412;SDS011;44209;52.952;6.790;2023-08-21T01:23:37;2.58;;;2.00;;
58412;SDS011;44209;52.952;6.790;2023-08-21T01:26:03;4.28;;;2.20;;
58412;SDS011;44209;52.952;6.790;2023-08-21T01:28:30;5.90;;;2.35;;
58412;SDS011;44209;52.952;6.790;2023-08-21T01:31:08;3.60;;;2.10;;
58412;SDS011;44209;52.952;6.790;2023-08-21T01:33:45;6.30;;;2.75;;
58412;SDS011;44209;52.952;6.790;2023-08-21T01:36:16;3.60;;;2.22;;
58412;SDS011;44209;52.952;6.790;2023-08-21T01:38:43;3.13;;;2.17;;
58412;SDS011;44209;52.952;6.790;2023-08-21T01:41:09;5.22;;;2.10;;
58412;SDS011;44209;52.952;6.790;2023-08-21T01:43:34;4.40;;;2.40;;
58412;SDS011;44209;52.952;6.790;2023-08-21T01:46:01;6.30;;;2.85;;
58412;SDS011;44209;52.952;6.790;2023-08-21T01:48:28;6.03;;;2.53;;
58412;SDS011;44209;52.952;6.790;2023-08-21T01:50:54;9.10;;;3.13;;
58412;SDS011;44209;52.952;6.790;2023-08-21T01:53:19;5.47;;;2.45;;
58412;SDS011;44209;52.952;6.790;2023-08-21T01:55:45;5.07;;;2.55;;
58412;SDS011;44209;52.952;6.790;2023-08-21T01:58:11;6.40;;;2.28;;
58412;SDS011;44209;52.952;6.790;2023-08-21T02:00:37;6.47;;;2.35;;
58412;SDS011;44209;52.952;6.790;2023-08-21T02:03:02;5.05;;;2.50;;
58412;SDS011;44209;52.952;6.790;2023-08-21T02:05:28;4.78;;;2.58;;
58412;SDS011;44209;52.952;6.790;2023-08-21T02:07:54;5.93;;;2.72;;
58412;SDS011;44209;52.952;6.790;2023-08-21T02:10:20;4.63;;;2.90;;
58412;SDS011;44209;52.952;6.790;2023-08-21T02:12:45;6.03;;;2.83;;
58412;SDS011;44209;52.952;6.790;2023-08-21T02:15:11;7.43;;;3.53;;
58412;SDS011;44209;52.952;6.790;2023-08-21T02:17:37;5.82;;;2.50;;
58412;SDS011;44209;52.952;6.790;2023-08-21T02:20:02;4.72;;;2.80;;
58412;SDS011;44209;52.952;6.790;2023-08-21T02:22:29;4.70;;;2.35;;
58412;SDS011;44209;52.952;6.790;2023-08-21T02:24:54;4.32;;;3.00;;
58412;SDS011;44209;52.952;6.790;2023-08-21T02:27:20;4.30;;;2.42;;
58412;SDS011;44209;52.952;6.790;2023-08-21T02:29:46;8.88;;;3.13;;
58412;SDS011;44209;52.952;6.790;2023-08-21T02:32:11;3.83;;;2.65;;
58412;SDS011;44209;52.952;6.790;2023-08-21T02:34:37;6.57;;;2.97;;
58412;SDS011;44209;52.952;6.790;2023-08-21T02:37:04;4.07;;;2.95;;
58412;SDS011;44209;52.952;6.790;2023-08-21T02:39:30;3.95;;;3.15;;
58412;SDS011;44209;52.952;6.790;2023-08-21T02:41:56;5.57;;;2.88;;
58412;SDS011;44209;52.952;6.790;2023-08-21T02:44:21;5.22;;;2.90;;
58412;SDS011;44209;52.952;6.790;2023-08-21T02:46:47;3.65;;;2.70;;
58412;SDS011;44209;52.952;6.790;2023-08-21T02:49:13;7.97;;;3.42;;
58412;SDS011;44209;52.952;6.790;2023-08-21T02:51:38;7.35;;;2.90;;
58412;SDS011;44209;52.952;6.790;2023-08-21T02:54:04;4.30;;;2.47;;
58412;SDS011;44209;52.952;6.790;2023-08-21T02:56:30;5.28;;;2.83;;
58412;SDS011;44209;52.952;6.790;2023-08-21T02:58:56;6.32;;;2.22;;
58412;SDS011;44209;52.952;6.790;2023-08-21T03:01:22;3.90;;;2.53;;
58412;SDS011;44209;52.952;6.790;2023-08-21T03:03:47;2.42;;;2.10;;
58412;SDS011;44209;52.952;6.790;2023-08-21T03:06:13;5.38;;;2.40;;
58412;SDS011;44209;52.952;6.790;2023-08-21T03:08:41;5.00;;;2.30;;
58412;SDS011;44209;52.952;6.790;2023-08-21T03:11:08;4.90;;;2.85;;
58412;SDS011;44209;52.952;6.790;2023-08-21T03:13:34;4.28;;;2.30;;
58412;SDS011;44209;52.952;6.790;2023-08-21T03:16:00;4.97;;;2.13;;
58412;SDS011;44209;52.952;6.790;2023-08-21T03:18:31;4.35;;;2.20;;
58412;SDS011;44209;52.952;6.790;2023-08-21T03:20:57;3.88;;;2.22;;
58412;SDS011;44209;52.952;6.790;2023-08-21T03:23:23;4.82;;;2.53;;
58412;SDS011;44209;52.952;6.790;2023-08-21T03:25:51;5.25;;;2.03;;
58412;SDS011;44209;52.952;6.790;2023-08-21T03:28:18;5.20;;;2.28;;
58412;SDS011;44209;52.952;6.790;2023-08-21T03:30:43;4.75;;;2.70;;
58412;SDS011;44209;52.952;6.790;2023-08-21T03:33:09;6.10;;;2.53;;
58412;SDS011;44209;52.952;6.790;2023-08-21T03:35:35;2.58;;;2.05;;
58412;SDS011;44209;52.952;6.790;2023-08-21T03:38:00;4.22;;;2.15;;
58412;SDS011;44209;52.952;6.790;2023-08-21T03:40:26;3.45;;;2.00;;
58412;SDS011;44209;52.952;6.790;2023-08-21T03:42:52;3.28;;;1.80;;
58412;SDS011;44209;52.952;6.790;2023-08-21T03:45:17;4.63;;;2.10;;
58412;SDS011;44209;52.952;6.790;2023-08-21T03:47:43;6.07;;;2.42;;
58412;SDS011;44209;52.952;6.790;2023-08-21T03:50:09;3.03;;;1.83;;
58412;SDS011;44209;52.952;6.790;2023-08-21T03:52:35;5.78;;;1.80;;
58412;SDS011;44209;52.952;6.790;2023-08-21T03:55:00;4.55;;;2.10;;
58412;SDS011;44209;52.952;6.790;2023-08-21T03:57:26;5.20;;;2.00;;
58412;SDS011;44209;52.952;6.790;2023-08-21T03:59:52;3.70;;;1.70;;
58412;SDS011;44209;52.952;6.790;2023-08-21T04:02:17;3.60;;;1.70;;
58412;SDS011;44209;52.952;6.790;2023-08-21T04:04:43;4.35;;;1.83;;
58412;SDS011;44209;52.952;6.790;2023-08-21T04:07:09;3.30;;;1.58;;
58412;SDS011;44209;52.952;6.790;2023-08-21T04:09:34;4.20;;;2.10;;
58412;SDS011;44209;52.952;6.790;2023-08-21T04:12:00;4.68;;;2.45;;
58412;SDS011;44209;52.952;6.790;2023-08-21T04:14:26;3.55;;;1.50;;
58412;SDS011;44209;52.952;6.790;2023-08-21T04:16:51;2.47;;;1.70;;
58412;SDS011;44209;52.952;6.790;2023-08-21T04:19:17;3.25;;;1.60;;
58412;SDS011;44209;52.952;6.790;2023-08-21T04:21:43;2.25;;;1.52;;
58412;SDS011;44209;52.952;6.790;2023-08-21T04:24:08;3.00;;;2.17;;
58412;SDS011;44209;52.952;6.790;2023-08-21T04:26:34;8.27;;;1.67;;
58412;SDS011;44209;52.952;6.790;2023-08-21T04:29:00;5.53;;;2.05;;
58412;SDS011;44209;52.952;6.790;2023-08-21T04:31:25;3.70;;;2.03;;
58412;SDS011;44209;52.952;6.790;2023-08-21T04:33:51;3.28;;;1.98;;
58412;SDS011;44209;52.952;6.790;2023-08-21T04:36:17;4.20;;;2.17;;
58412;SDS011;44209;52.952;6.790;2023-08-21T04:38:42;3.00;;;1.38;;
58412;SDS011;44209;52.952;6.790;2023-08-21T04:41:09;3.97;;;1.80;;
58412;SDS011;44209;52.952;6.790;2023-08-21T04:43:34;2.53;;;1.63;;
58412;SDS011;44209;52.952;6.790;2023-08-21T04:46:00;5.10;;;1.77;;
58412;SDS011;44209;52.952;6.790;2023-08-21T04:48:26;4.03;;;1.77;;
58412;SDS011;44209;52.952;6.790;2023-08-21T04:50:52;3.03;;;2.05;;
58412;SDS011;44209;52.952;6.790;2023-08-21T04:53:18;5.50;;;1.58;;
58412;SDS011;44209;52.952;6.790;2023-08-21T04:55:43;4.20;;;1.85;;
58412;SDS011;44209;52.952;6.790;2023-08-21T04:58:09;3.47;;;2.17;;
58412;SDS011;44209;52.952;6.790;2023-08-21T05:00:35;4.03;;;1.73;;
58412;SDS011;44209;52.952;6.790;2023-08-21T05:03:01;3.42;;;2.13;;
58412;SDS011;44209;52.952;6.790;2023-08-21T05:05:27;6.82;;;2.30;;
58412;SDS011;44209;52.952;6.790;2023-08-21T05:07:53;2.10;;;1.52;;
58412;SDS011;44209;52.952;6.790;2023-08-21T05:10:19;3.53;;;1.60;;
58412;SDS011;44209;52.952;6.790;2023-08-21T05:12:45;4.35;;;1.80;;
58412;SDS011;44209;52.952;6.790;2023-08-21T05:15:11;2.88;;;1.90;;
58412;SDS011;44209;52.952;6.790;2023-08-21T05:17:37;3.30;;;1.70;;
58412;SDS011;44209;52.952;6.790;2023-08-21T05:20:03;3.70;;;1.60;;
58412;SDS011;44209;52.952;6.790;2023-08-21T05:22:29;4.13;;;1.90;;
58412;SDS011;44209;52.952;6.790;2023-08-21T05:24:55;3.97;;;1.70;;
58412;SDS011;44209;52.952;6.790;2023-08-21T05:27:21;4.50;;;1.85;;
58412;SDS011;44209;52.952;6.790;2023-08-21T05:29:46;5.10;;;2.17;;
58412;SDS011;44209;52.952;6.790;2023-08-21T05:32:14;4.03;;;1.70;;
58412;SDS011;44209;52.952;6.790;2023-08-21T05:34:40;3.33;;;2.10;;
58412;SDS011;44209;52.952;6.790;2023-08-21T05:37:05;2.67;;;1.67;;
58412;SDS011;44209;52.952;6.790;2023-08-21T05:39:32;3.85;;;1.90;;
58412;SDS011;44209;52.952;6.790;2023-08-21T05:41:58;4.57;;;1.95;;
58412;SDS011;44209;52.952;6.790;2023-08-21T05:44:24;5.43;;;2.10;;
58412;SDS011;44209;52.952;6.790;2023-08-21T05:46:50;4.03;;;2.10;;
58412;SDS011;44209;52.952;6.790;2023-08-21T05:49:15;6.05;;;2.45;;
58412;SDS011;44209;52.952;6.790;2023-08-21T05:51:41;4.65;;;2.30;;
58412;SDS011;44209;52.952;6.790;2023-08-21T05:54:07;3.85;;;2.45;;
58412;SDS011;44209;52.952;6.790;2023-08-21T05:56:32;4.95;;;2.63;;
58412;SDS011;44209;52.952;6.790;2023-08-21T05:58:58;5.60;;;3.05;;
58412;SDS011;44209;52.952;6.790;2023-08-21T06:01:24;7.07;;;3.83;;
58412;SDS011;44209;52.952;6.790;2023-08-21T06:03:49;8.30;;;3.33;;
58412;SDS011;44209;52.952;6.790;2023-08-21T06:06:15;9.55;;;4.20;;
58412;SDS011;44209;52.952;6.790;2023-08-21T06:08:41;10.85;;;4.30;;
58412;SDS011;44209;52.952;6.790;2023-08-21T06:11:06;8.70;;;4.68;;
58412;SDS011;44209;52.952;6.790;2023-08-21T06:13:32;9.07;;;4.00;;
58412;SDS011;44209;52.952;6.790;2023-08-21T06:15:58;6.93;;;4.65;;
58412;SDS011;44209;52.952;6.790;2023-08-21T06:18:24;9.85;;;4.53;;
58412;SDS011;44209;52.952;6.790;2023-08-21T06:20:49;8.27;;;4.47;;
58412;SDS011;44209;52.952;6.790;2023-08-21T06:23:19;6.82;;;4.18;;
58412;SDS011;44209;52.952;6.790;2023-08-21T06:25:47;9.98;;;4.65;;
58412;SDS011;44209;52.952;6.790;2023-08-21T06:28:16;6.50;;;4.18;;
58412;SDS011;44209;52.952;6.790;2023-08-21T06:30:42;9.00;;;4.50;;
58412;SDS011;44209;52.952;6.790;2023-08-21T06:33:07;8.90;;;4.40;;
58412;SDS011;44209;52.952;6.790;2023-08-21T06:35:35;6.63;;;4.25;;
58412;SDS011;44209;52.952;6.790;2023-08-21T06:38:02;8.55;;;4.32;;
58412;SDS011;44209;52.952;6.790;2023-08-21T06:40:27;6.90;;;4.15;;
58412;SDS011;44209;52.952;6.790;2023-08-21T06:42:53;6.18;;;4.05;;
58412;SDS011;44209;52.952;6.790;2023-08-21T06:45:19;7.32;;;3.97;;
58412;SDS011;44209;52.952;6.790;2023-08-21T06:47:45;10.15;;;3.90;;
58412;SDS011;44209;52.952;6.790;2023-08-21T06:50:10;7.00;;;4.07;;
58412;SDS011;44209;52.952;6.790;2023-08-21T06:52:36;6.18;;;4.22;;
58412;SDS011;44209;52.952;6.790;2023-08-21T06:55:01;7.00;;;3.78;;
58412;SDS011;44209;52.952;6.790;2023-08-21T06:57:27;5.90;;;3.58;;
58412;SDS011;44209;52.952;6.790;2023-08-21T06:59:53;10.27;;;4.20;;
58412;SDS011;44209;52.952;6.790;2023-08-21T07:02:19;5.25;;;3.53;;
58412;SDS011;44209;52.952;6.790;2023-08-21T07:04:45;5.53;;;3.08;;
58412;SDS011;44209;52.952;6.790;2023-08-21T07:07:10;8.02;;;4.03;;
58412;SDS011;44209;52.952;6.790;2023-08-21T07:09:36;6.15;;;3.55;;
58412;SDS011;44209;52.952;6.790;2023-08-21T07:12:02;5.03;;;3.45;;
58412;SDS011;44209;52.952;6.790;2023-08-21T07:14:28;6.13;;;3.40;;
58412;SDS011;44209;52.952;6.790;2023-08-21T07:16:54;4.65;;;2.67;;
58412;SDS011;44209;52.952;6.790;2023-08-21T07:19:19;6.63;;;2.67;;
58412;SDS011;44209;52.952;6.790;2023-08-21T07:21:45;5.05;;;2.60;;
58412;SDS011;44209;52.952;6.790;2023-08-21T07:24:11;6.97;;;2.80;;
58412;SDS011;44209;52.952;6.790;2023-08-21T07:26:36;9.35;;;2.78;;
58412;SDS011;44209;52.952;6.790;2023-08-21T07:29:02;4.25;;;2.50;;
58412;SDS011;44209;52.952;6.790;2023-08-21T07:31:29;5.88;;;2.67;;
58412;SDS011;44209;52.952;6.790;2023-08-21T07:33:55;6.20;;;2.15;;
58412;SDS011;44209;52.952;6.790;2023-08-21T07:36:21;8.00;;;2.30;;
58412;SDS011;44209;52.952;6.790;2023-08-21T07:38:47;8.05;;;2.50;;
58412;SDS011;44209;52.952;6.790;2023-08-21T07:41:13;6.38;;;1.83;;
58412;SDS011;44209;52.952;6.790;2023-08-21T07:43:42;8.55;;;2.03;;
58412;SDS011;44209;52.952;6.790;2023-08-21T07:46:09;5.13;;;1.95;;
58412;SDS011;44209;52.952;6.790;2023-08-21T07:48:38;5.28;;;1.95;;
58412;SDS011;44209;52.952;6.790;2023-08-21T07:51:04;3.97;;;1.95;;
58412;SDS011;44209;52.952;6.790;2023-08-21T07:53:30;4.20;;;1.83;;
58412;SDS011;44209;52.952;6.790;2023-08-21T07:55:56;3.65;;;1.75;;
58412;SDS011;44209;52.952;6.790;2023-08-21T07:58:25;4.88;;;2.00;;
58412;SDS011;44209;52.952;6.790;2023-08-21T08:00:51;4.93;;;2.20;;
58412;SDS011;44209;52.952;6.790;2023-08-21T08:03:17;4.00;;;1.90;;
58412;SDS011;44209;52.952;6.790;2023-08-21T08:05:42;5.07;;;1.70;;
58412;SDS011;44209;52.952;6.790;2023-08-21T08:08:08;3.53;;;1.65;;
58412;SDS011;44209;52.952;6.790;2023-08-21T08:10:40;3.90;;;1.85;;
58412;SDS011;44209;52.952;6.790;2023-08-21T08:13:06;4.28;;;1.58;;
58412;SDS011;44209;52.952;6.790;2023-08-21T08:15:32;3.70;;;1.50;;
58412;SDS011;44209;52.952;6.790;2023-08-21T08:18:00;6.35;;;1.95;;
58412;SDS011;44209;52.952;6.790;2023-08-21T08:20:30;5.68;;;1.70;;
58412;SDS011;44209;52.952;6.790;2023-08-21T08:22:56;4.05;;;1.70;;
58412;SDS011;44209;52.952;6.790;2023-08-21T08:25:22;3.55;;;1.77;;
58412;SDS011;44209;52.952;6.790;2023-08-21T08:27:48;4.78;;;1.90;;
58412;SDS011;44209;52.952;6.790;2023-08-21T08:30:14;3.22;;;1.52;;
58412;SDS011;44209;52.952;6.790;2023-08-21T08:32:42;5.70;;;1.70;;
58412;SDS011;44209;52.952;6.790;2023-08-21T08:35:14;4.10;;;1.73;;
58412;SDS011;44209;52.952;6.790;2023-08-21T08:37:40;3.13;;;1.60;;
58412;SDS011;44209;52.952;6.790;2023-08-21T08:40:07;4.25;;;1.90;;
58412;SDS011;44209;52.952;6.790;2023-08-21T08:42:34;3.08;;;1.70;;
58412;SDS011;44209;52.952;6.790;2023-08-21T08:45:00;2.28;;;1.50;;
58412;SDS011;44209;52.952;6.790;2023-08-21T08:47:29;4.85;;;1.63;;
58412;SDS011;44209;52.952;6.790;2023-08-21T08:49:59;4.60;;;1.58;;
58412;SDS011;44209;52.952;6.790;2023-08-21T08:52:29;3.70;;;1.80;;
58412;SDS011;44209;52.952;6.790;2023-08-21T08:54:59;4.70;;;1.60;;
58412;SDS011;44209;52.952;6.790;2023-08-21T08:57:24;4.70;;;2.08;;
58412;SDS011;44209;52.952;6.790;2023-08-21T08:59:50;2.88;;;1.25;;
58412;SDS011;44209;52.952;6.790;2023-08-21T09:02:16;3.20;;;1.40;;
58412;SDS011;44209;52.952;6.790;2023-08-21T09:04:42;4.25;;;1.52;;
58412;SDS011;44209;52.952;6.790;2023-08-21T09:07:08;3.90;;;1.52;;
58412;SDS011;44209;52.952;6.790;2023-08-21T09:09:40;1.63;;;1.23;;
58412;SDS011;44209;52.952;6.790;2023-08-21T09:12:10;2.10;;;1.50;;
58412;SDS011;44209;52.952;6.790;2023-08-21T09:14:38;4.88;;;1.70;;
58412;SDS011;44209;52.952;6.790;2023-08-21T09:17:06;4.30;;;1.23;;
58412;SDS011;44209;52.952;6.790;2023-08-21T09:19:32;3.20;;;1.35;;
58412;SDS011;44209;52.952;6.790;2023-08-21T09:21:58;1.90;;;1.15;;
58412;SDS011;44209;52.952;6.790;2023-08-21T09:24:32;2.83;;;1.20;;
58412;SDS011;44209;52.952;6.790;2023-08-21T09:26:58;2.45;;;1.05;;
58412;SDS011;44209;52.952;6.790;2023-08-21T09:29:26;2.88;;;1.00;;
58412;SDS011;44209;52.952;6.790;2023-08-21T09:31:55;2.22;;;1.20;;
58412;SDS011;44209;52.952;6.790;2023-08-21T09:34:21;3.53;;;1.17;;
58412;SDS011;44209;52.952;6.790;2023-08-21T09:36:56;2.78;;;1.00;;
58412;SDS011;44209;52.952;6.790;2023-08-21T09:39:21;2.13;;;1.10;;
58412;SDS011;44209;52.952;6.790;2023-08-21T09:41:57;3.55;;;1.02;;
58412;SDS011;44209;52.952;6.790;2023-08-21T09:44:23;1.38;;;0.98;;
58412;SDS011;44209;52.952;6.790;2023-08-21T09:46:49;2.75;;;0.95;;
58412;SDS011;44209;52.952;6.790;2023-08-21T09:49:15;4.93;;;1.13;;
58412;SDS011;44209;52.952;6.790;2023-08-21T09:51:43;3.58;;;1.10;;
58412;SDS011;44209;52.952;6.790;2023-08-21T09:54:10;4.43;;;1.20;;
58412;SDS011;44209;52.952;6.790;2023-08-21T09:56:37;2.90;;;1.30;;
58412;SDS011;44209;52.952;6.790;2023-08-21T09:59:03;3.03;;;1.20;;
58412;SDS011;44209;52.952;6.790;2023-08-21T10:01:29;2.08;;;1.13;;
58412;SDS011;44209;52.952;6.790;2023-08-21T10:04:00;3.95;;;1.50;;
58412;SDS011;44209;52.952;6.790;2023-08-21T10:06:28;4.22;;;1.60;;
58412;SDS011;44209;52.952;6.790;2023-08-21T10:08:55;2.42;;;1.20;;
58412;SDS011;44209;52.952;6.790;2023-08-21T10:11:23;4.00;;;1.52;;
58412;SDS011;44209;52.952;6.790;2023-08-21T10:13:49;5.18;;;1.23;;
58412;SDS011;44209;52.952;6.790;2023-08-21T10:16:16;3.00;;;1.10;;
58412;SDS011;44209;52.952;6.790;2023-08-21T10:18:45;2.17;;;1.05;;
58412;SDS011;44209;52.952;6.790;2023-08-21T10:21:13;4.97;;;1.55;;
58412;SDS011;44209;52.952;6.790;2023-08-21T10:26:20;2.05;;;1.10;;
58412;SDS011;44209;52.952;6.790;2023-08-21T10:31:33;3.65;;;1.27;;
58412;SDS011;44209;52.952;6.790;2023-08-21T10:39:20;4.15;;;1.02;;
58412;SDS011;44209;52.952;6.790;2023-08-21T10:41:54;2.95;;;0.90;;
58412;SDS011;44209;52.952;6.790;2023-08-21T10:47:16;4.68;;;1.23;;
58412;SDS011;44209;52.952;6.790;2023-08-21T10:49:44;2.28;;;1.10;;
58412;SDS011;44209;52.952;6.790;2023-08-21T10:52:11;3.25;;;1.20;;
58412;SDS011;44209;52.952;6.790;2023-08-21T10:54:47;2.78;;;1.00;;
58412;SDS011;44209;52.952;6.790;2023-08-21T10:57:14;4.70;;;1.27;;
58412;SDS011;44209;52.952;6.790;2023-08-21T10:59:54;2.53;;;1.10;;
58412;SDS011;44209;52.952;6.790;2023-08-21T11:02:25;2.33;;;1.23;;
58412;SDS011;44209;52.952;6.790;2023-08-21T11:04:53;2.03;;;1.00;;
58412;SDS011;44209;52.952;6.790;2023-08-21T11:07:19;3.88;;;1.20;;
58412;SDS011;44209;52.952;6.790;2023-08-21T11:09:44;5.13;;;1.35;;
58412;SDS011;44209;52.952;6.790;2023-08-21T11:12:11;1.60;;;1.30;;
58412;SDS011;44209;52.952;6.790;2023-08-21T11:14:39;4.53;;;1.20;;
58412;SDS011;44209;52.952;6.790;2023-08-21T11:17:05;5.70;;;1.40;;
58412;SDS011;44209;52.952;6.790;2023-08-21T11:19:32;2.83;;;1.10;;
58412;SDS011;44209;52.952;6.790;2023-08-21T11:22:02;5.35;;;1.65;;
58412;SDS011;44209;52.952;6.790;2023-08-21T11:27:06;3.33;;;1.08;;
58412;SDS011;44209;52.952;6.790;2023-08-21T11:29:37;3.13;;;1.23;;
58412;SDS011;44209;52.952;6.790;2023-08-21T11:32:23;4.43;;;1.40;;
58412;SDS011;44209;52.952;6.790;2023-08-21T11:34:50;2.70;;;1.25;;
58412;SDS011;44209;52.952;6.790;2023-08-21T11:37:18;2.10;;;1.17;;
58412;SDS011;44209;52.952;6.790;2023-08-21T11:39:47;2.75;;;1.40;;
58412;SDS011;44209;52.952;6.790;2023-08-21T11:42:14;3.38;;;1.13;;
58412;SDS011;44209;52.952;6.790;2023-08-21T11:44:44;3.05;;;1.05;;
58412;SDS011;44209;52.952;6.790;2023-08-21T11:47:11;1.58;;;1.30;;
58412;SDS011;44209;52.952;6.790;2023-08-21T11:49:38;3.47;;;1.33;;
58412;SDS011;44209;52.952;6.790;2023-08-21T11:52:06;3.33;;;1.45;;
58412;SDS011;44209;52.952;6.790;2023-08-21T11:54:38;3.58;;;1.35;;
58412;SDS011;44209;52.952;6.790;2023-08-21T11:59:39;2.80;;;1.15;;
58412;SDS011;44209;52.952;6.790;2023-08-21T12:02:17;2.92;;;1.20;;
58412;SDS011;44209;52.952;6.790;2023-08-21T12:04:44;2.83;;;1.08;;
58412;SDS011;44209;52.952;6.790;2023-08-21T12:07:16;5.30;;;1.50;;
58412;SDS011;44209;52.952;6.790;2023-08-21T12:09:45;2.90;;;1.27;;
58412;SDS011;44209;52.952;6.790;2023-08-21T12:12:13;3.08;;;1.20;;
58412;SDS011;44209;52.952;6.790;2023-08-21T12:14:39;3.80;;;1.40;;
58412;SDS011;44209;52.952;6.790;2023-08-21T12:17:05;1.65;;;1.40;;
58412;SDS011;44209;52.952;6.790;2023-08-21T12:19:30;2.28;;;1.23;;
58412;SDS011;44209;52.952;6.790;2023-08-21T12:21:56;3.53;;;1.45;;
58412;SDS011;44209;52.952;6.790;2023-08-21T12:24:23;4.13;;;1.50;;
58412;SDS011;44209;52.952;6.790;2023-08-21T12:26:49;1.60;;;1.10;;
58412;SDS011;44209;52.952;6.790;2023-08-21T12:29:15;4.47;;;1.50;;
58412;SDS011;44209;52.952;6.790;2023-08-21T12:31:41;4.45;;;1.85;;
58412;SDS011;44209;52.952;6.790;2023-08-21T12:34:07;2.05;;;1.48;;
58412;SDS011;44209;52.952;6.790;2023-08-21T12:36:35;2.13;;;1.17;;
58412;SDS011;44209;52.952;6.790;2023-08-21T12:39:02;3.70;;;1.50;;
58412;SDS011;44209;52.952;6.790;2023-08-21T12:41:29;3.47;;;1.52;;
58412;SDS011;44209;52.952;6.790;2023-08-21T12:43:55;2.83;;;1.50;;
58412;SDS011;44209;52.952;6.790;2023-08-21T12:46:20;2.25;;;1.55;;
58412;SDS011;44209;52.952;6.790;2023-08-21T12:48:46;2.05;;;1.15;;
58412;SDS011;44209;52.952;6.790;2023-08-21T12:51:13;2.17;;;1.15;;
58412;SDS011;44209;52.952;6.790;2023-08-21T12:53:38;3.83;;;1.42;;
58412;SDS011;44209;52.952;6.790;2023-08-21T12:56:04;3.25;;;1.50;;
58412;SDS011;44209;52.952;6.790;2023-08-21T12:58:30;3.95;;;1.65;;
58412;SDS011;44209;52.952;6.790;2023-08-21T13:00:56;2.53;;;1.60;;
58412;SDS011;44209;52.952;6.790;2023-08-21T13:03:21;3.97;;;1.48;;
58412;SDS011;44209;52.952;6.790;2023-08-21T13:05:47;4.32;;;1.50;;
58412;SDS011;44209;52.952;6.790;2023-08-21T13:08:13;0.90;;;0.88;;
58412;SDS011;44209;52.952;6.790;2023-08-21T13:10:39;2.25;;;1.08;;
58412;SDS011;44209;52.952;6.790;2023-08-21T13:13:05;1.52;;;1.02;;
58412;SDS011;44209;52.952;6.790;2023-08-21T13:15:30;2.47;;;1.20;;
58412;SDS011;44209;52.952;6.790;2023-08-21T13:17:57;3.92;;;1.23;;
58412;SDS011;44209;52.952;6.790;2023-08-21T13:20:23;1.70;;;1.20;;
58412;SDS011;44209;52.952;6.790;2023-08-21T13:22:52;1.67;;;1.20;;
58412;SDS011;44209;52.952;6.790;2023-08-21T13:25:18;1.85;;;1.00;;
58412;SDS011;44209;52.952;6.790;2023-08-21T13:27:45;3.55;;;1.40;;
58412;SDS011;44209;52.952;6.790;2023-08-21T13:30:12;3.28;;;1.38;;
58412;SDS011;44209;52.952;6.790;2023-08-21T13:32:38;2.90;;;1.40;;
58412;SDS011;44209;52.952;6.790;2023-08-21T13:35:04;1.90;;;1.20;;
58412;SDS011;44209;52.952;6.790;2023-08-21T13:37:32;2.60;;;1.30;;
58412;SDS011;44209;52.952;6.790;2023-08-21T13:39:58;4.38;;;1.38;;
58412;SDS011;44209;52.952;6.790;2023-08-21T13:42:25;2.28;;;1.15;;
58412;SDS011;44209;52.952;6.790;2023-08-21T13:44:55;4.05;;;1.27;;
58412;SDS011;44209;52.952;6.790;2023-08-21T13:47:22;4.63;;;1.48;;
58412;SDS011;44209;52.952;6.790;2023-08-21T13:49:48;3.38;;;1.15;;
58412;SDS011;44209;52.952;6.790;2023-08-21T13:52:13;4.03;;;1.35;;
58412;SDS011;44209;52.952;6.790;2023-08-21T13:54:39;3.33;;;1.25;;
58412;SDS011;44209;52.952;6.790;2023-08-21T13:57:05;2.72;;;1.35;;
58412;SDS011;44209;52.952;6.790;2023-08-21T13:59:31;3.53;;;1.25;;
58412;SDS011;44209;52.952;6.790;2023-08-21T14:01:56;2.42;;;1.10;;
58412;SDS011;44209;52.952;6.790;2023-08-21T14:04:22;5.75;;;1.50;;
58412;SDS011;44209;52.952;6.790;2023-08-21T14:06:48;6.38;;;1.10;;
58412;SDS011;44209;52.952;6.790;2023-08-21T14:09:13;4.65;;;1.13;;
58412;SDS011;44209;52.952;6.790;2023-08-21T14:11:39;3.95;;;1.33;;
58412;SDS011;44209;52.952;6.790;2023-08-21T14:14:06;3.45;;;1.40;;
58412;SDS011;44209;52.952;6.790;2023-08-21T14:16:32;2.97;;;1.30;;
58412;SDS011;44209;52.952;6.790;2023-08-21T14:18:57;3.80;;;1.30;;
58412;SDS011;44209;52.952;6.790;2023-08-21T14:21:23;6.07;;;1.40;;
58412;SDS011;44209;52.952;6.790;2023-08-21T14:23:49;3.75;;;1.25;;
58412;SDS011;44209;52.952;6.790;2023-08-21T14:26:14;1.30;;;1.00;;
58412;SDS011;44209;52.952;6.790;2023-08-21T14:28:40;2.22;;;1.08;;
58412;SDS011;44209;52.952;6.790;2023-08-21T14:31:06;2.05;;;1.20;;
58412;SDS011;44209;52.952;6.790;2023-08-21T14:33:31;2.20;;;1.20;;
58412;SDS011;44209;52.952;6.790;2023-08-21T14:35:57;3.90;;;1.30;;
58412;SDS011;44209;52.952;6.790;2023-08-21T14:38:23;2.67;;;1.27;;
58412;SDS011;44209;52.952;6.790;2023-08-21T14:40:49;3.90;;;1.20;;
58412;SDS011;44209;52.952;6.790;2023-08-21T14:43:17;2.78;;;1.30;;
58412;SDS011;44209;52.952;6.790;2023-08-21T14:45:43;2.78;;;1.00;;
58412;SDS011;44209;52.952;6.790;2023-08-21T14:48:08;4.38;;;1.27;;
58412;SDS011;44209;52.952;6.790;2023-08-21T14:50:34;2.45;;;1.27;;
58412;SDS011;44209;52.952;6.790;2023-08-21T14:53:00;3.53;;;1.27;;
58412;SDS011;44209;52.952;6.790;2023-08-21T14:55:25;2.58;;;1.30;;
58412;SDS011;44209;52.952;6.790;2023-08-21T14:57:51;4.57;;;1.38;;
58412;SDS011;44209;52.952;6.790;2023-08-21T15:00:16;3.15;;;1.30;;
58412;SDS011;44209;52.952;6.790;2023-08-21T15:02:42;6.18;;;1.52;;
58412;SDS011;44209;52.952;6.790;2023-08-21T15:05:08;5.03;;;1.52;;
58412;SDS011;44209;52.952;6.790;2023-08-21T15:07:34;4.93;;;1.50;;